sensor_id;sensor_type;location;lat;lon;timestamp;P1;durP1;ratioP1;P2;durP2;ratioP2
33170;SDS011;19535;50.672;4.206;2024-03-02T00:00:10;0.32;;;0.30;;
33170;SDS011;19535;50.672;4.206;2024-03-02T00:02:43;0.45;;;0.20;;
33170;SDS011;19535;50.672;4.206;2024-03-02T00:05:11;0.20;;;0.20;;
33170;SDS011;19535;50.672;4.206;2024-03-02T00:07:40;1.13;;;0.30;;
33170;SDS011;19535;50.672;4.206;2024-03-02T00:10:09;0.35;;;0.30;;
33170;SDS011;19535;50.672;4.206;2024-03-02T00:12:37;0.80;;;0.20;;
33170;SDS011;19535;50.672;4.206;2024-03-02T00:15:06;0.70;;;0.20;;
33170;SDS011;19535;50.672;4.206;2024-03-02T00:17:44;1.13;;;0.20;;
33170;SDS011;19535;50.672;4.206;2024-03-02T00:20:12;2.00;;;0.20;;
33170;SDS011;19535;50.672;4.206;2024-03-02T00:22:44;0.25;;;0.20;;
33170;SDS011;19535;50.672;4.206;2024-03-02T00:25:15;0.20;;;0.20;;
33170;SDS011;19535;50.672;4.206;2024-03-02T00:27:42;1.80;;;0.35;;
33170;SDS011;19535;50.672;4.206;2024-03-02T00:32:58;1.88;;;0.30;;
33170;SDS011;19535;50.672;4.206;2024-03-02T00:35:25;2.83;;;0.38;;
33170;SDS011;19535;50.672;4.206;2024-03-02T00:37:52;0.55;;;0.30;;
33170;SDS011;19535;50.672;4.206;2024-03-02T00:40:20;0.32;;;0.20;;
33170;SDS011;19535;50.672;4.206;2024-03-02T00:42:47;3.13;;;0.30;;
33170;SDS011;19535;50.672;4.206;2024-03-02T00:45:15;0.75;;;0.40;;
33170;SDS011;19535;50.672;4.206;2024-03-02T00:47:42;0.20;;;0.20;;
33170;SDS011;19535;50.672;4.206;2024-03-02T00:50:09;0.20;;;0.20;;
33170;SDS011;19535;50.672;4.206;2024-03-02T00:52:48;0.55;;;0.20;;
33170;SDS011;19535;50.672;4.206;2024-03-02T00:55:15;0.10;;;0.10;;
33170;SDS011;19535;50.672;4.206;2024-03-02T00:57:42;0.45;;;0.17;;
33170;SDS011;19535;50.672;4.206;2024-03-02T01:00:10;0.43;;;0.28;;
33170;SDS011;19535;50.672;4.206;2024-03-02T01:02:41;0.40;;;0.20;;
33170;SDS011;19535;50.672;4.206;2024-03-02T01:05:10;0.57;;;0.10;;
33170;SDS011;19535;50.672;4.206;2024-03-02T01:07:38;0.35;;;0.25;;
33170;SDS011;19535;50.672;4.206;2024-03-02T01:10:05;0.17;;;0.17;;
33170;SDS011;19535;50.672;4.206;2024-03-02T01:12:32;0.65;;;0.43;;
33170;SDS011;19535;50.672;4.206;2024-03-02T01:14:59;0.38;;;0.20;;
33170;SDS011;19535;50.672;4.206;2024-03-02T01:17:26;0.63;;;0.20;;
33170;SDS011;19535;50.672;4.206;2024-03-02T01:19:53;0.82;;;0.30;;
33170;SDS011;19535;50.672;4.206;2024-03-02T01:22:20;0.10;;;0.10;;
33170;SDS011;19535;50.672;4.206;2024-03-02T01:24:51;0.70;;;0.30;;
33170;SDS011;19535;50.672;4.206;2024-03-02T01:27:18;0.40;;;0.40;;
33170;SDS011;19535;50.672;4.206;2024-03-02T01:29:46;0.20;;;0.20;;
33170;SDS011;19535;50.672;4.206;2024-03-02T01:32:13;0.35;;;0.30;;
33170;SDS011;19535;50.672;4.206;2024-03-02T01:34:40;0.68;;;0.20;;
33170;SDS011;19535;50.672;4.206;2024-03-02T01:37:07;0.80;;;0.30;;
33170;SDS011;19535;50.672;4.206;2024-03-02T01:39:34;0.90;;;0.30;;
33170;SDS011;19535;50.672;4.206;2024-03-02T01:42:01;1.23;;;0.20;;
33170;SDS011;19535;50.672;4.206;2024-03-02T01:44:28;0.32;;;0.30;;
33170;SDS011;19535;50.672;4.206;2024-03-02T01:46:55;0.85;;;0.20;;
33170;SDS011;19535;50.672;4.206;2024-03-02T01:49:22;0.10;;;0.10;;
33170;SDS011;19535;50.672;4.206;2024-03-02T01:51:49;0.38;;;0.10;;
33170;SDS011;19535;50.672;4.206;2024-03-02T01:54:16;0.17;;;0.17;;
33170;SDS011;19535;50.672;4.206;2024-03-02T01:56:43;0.20;;;0.20;;
33170;SDS011;19535;50.672;4.206;2024-03-02T01:59:11;0.20;;;0.20;;
33170;SDS011;19535;50.672;4.206;2024-03-02T02:01:39;0.28;;;0.28;;
33170;SDS011;19535;50.672;4.206;2024-03-02T02:04:06;0.30;;;0.20;;
33170;SDS011;19535;50.672;4.206;2024-03-02T02:06:33;0.13;;;0.13;;
33170;SDS011;19535;50.672;4.206;2024-03-02T02:09:00;0.30;;;0.20;;
33170;SDS011;19535;50.672;4.206;2024-03-02T02:11:27;0.40;;;0.30;;
33170;SDS011;19535;50.672;4.206;2024-03-02T02:13:55;0.30;;;0.25;;
33170;SDS011;19535;50.672;4.206;2024-03-02T02:16:22;0.10;;;0.10;;
33170;SDS011;19535;50.672;4.206;2024-03-02T02:18:49;0.20;;;0.10;;
33170;SDS011;19535;50.672;4.206;2024-03-02T02:21:16;0.28;;;0.20;;
33170;SDS011;19535;50.672;4.206;2024-03-02T02:23:43;0.68;;;0.30;;
33170;SDS011;19535;50.672;4.206;2024-03-02T02:26:14;0.73;;;0.30;;
33170;SDS011;19535;50.672;4.206;2024-03-02T02:28:41;0.47;;;0.20;;
33170;SDS011;19535;50.672;4.206;2024-03-02T02:31:13;0.28;;;0.28;;
33170;SDS011;19535;50.672;4.206;2024-03-02T02:33:40;0.85;;;0.20;;
33170;SDS011;19535;50.672;4.206;2024-03-02T02:36:08;0.43;;;0.30;;
33170;SDS011;19535;50.672;4.206;2024-03-02T02:38:38;0.20;;;0.20;;
33170;SDS011;19535;50.672;4.206;2024-03-02T02:41:06;0.55;;;0.15;;
33170;SDS011;19535;50.672;4.206;2024-03-02T02:43:34;0.35;;;0.28;;
33170;SDS011;19535;50.672;4.206;2024-03-02T02:46:00;0.57;;;0.20;;
33170;SDS011;19535;50.672;4.206;2024-03-02T02:48:28;0.38;;;0.20;;
33170;SDS011;19535;50.672;4.206;2024-03-02T02:50:55;0.20;;;0.13;;
33170;SDS011;19535;50.672;4.206;2024-03-02T02:53:21;1.02;;;0.20;;
33170;SDS011;19535;50.672;4.206;2024-03-02T02:55:48;0.65;;;0.30;;
33170;SDS011;19535;50.672;4.206;2024-03-02T02:58:15;0.20;;;0.20;;
33170;SDS011;19535;50.672;4.206;2024-03-02T03:00:42;0.15;;;0.15;;
33170;SDS011;19535;50.672;4.206;2024-03-02T03:03:10;0.30;;;0.30;;
33170;SDS011;19535;50.672;4.206;2024-03-02T03:05:37;0.52;;;0.30;;
33170;SDS011;19535;50.672;4.206;2024-03-02T03:08:04;0.20;;;0.10;;
33170;SDS011;19535;50.672;4.206;2024-03-02T03:10:31;0.90;;;0.30;;
33170;SDS011;19535;50.672;4.206;2024-03-02T03:12:59;0.47;;;0.30;;
33170;SDS011;19535;50.672;4.206;2024-03-02T03:15:27;0.10;;;0.10;;
33170;SDS011;19535;50.672;4.206;2024-03-02T03:17:54;1.48;;;0.30;;
33170;SDS011;19535;50.672;4.206;2024-03-02T03:20:21;1.40;;;0.20;;
33170;SDS011;19535;50.672;4.206;2024-03-02T03:22:49;0.20;;;0.20;;
33170;SDS011;19535;50.672;4.206;2024-03-02T03:25:16;0.20;;;0.20;;
33170;SDS011;19535;50.672;4.206;2024-03-02T03:27:43;0.40;;;0.20;;
33170;SDS011;19535;50.672;4.206;2024-03-02T03:30:10;0.93;;;0.30;;
33170;SDS011;19535;50.672;4.206;2024-03-02T03:32:38;0.20;;;0.20;;
33170;SDS011;19535;50.672;4.206;2024-03-02T03:35:05;0.10;;;0.10;;
33170;SDS011;19535;50.672;4.206;2024-03-02T03:37:32;0.45;;;0.20;;
33170;SDS011;19535;50.672;4.206;2024-03-02T03:40:04;0.20;;;0.20;;
33170;SDS011;19535;50.672;4.206;2024-03-02T03:42:37;0.60;;;0.30;;
33170;SDS011;19535;50.672;4.206;2024-03-02T03:45:06;0.22;;;0.20;;
33170;SDS011;19535;50.672;4.206;2024-03-02T03:47:33;0.60;;;0.40;;
33170;SDS011;19535;50.672;4.206;2024-03-02T03:50:00;0.30;;;0.30;;
33170;SDS011;19535;50.672;4.206;2024-03-02T03:52:29;0.30;;;0.20;;
33170;SDS011;19535;50.672;4.206;2024-03-02T03:54:56;0.38;;;0.20;;
33170;SDS011;19535;50.672;4.206;2024-03-02T03:57:23;0.43;;;0.38;;
33170;SDS011;19535;50.672;4.206;2024-03-02T03:59:50;0.30;;;0.30;;
33170;SDS011;19535;50.672;4.206;2024-03-02T04:02:17;0.28;;;0.13;;
33170;SDS011;19535;50.672;4.206;2024-03-02T04:04:44;0.50;;;0.40;;
33170;SDS011;19535;50.672;4.206;2024-03-02T04:07:11;0.30;;;0.22;;
33170;SDS011;19535;50.672;4.206;2024-03-02T04:09:38;0.40;;;0.28;;
33170;SDS011;19535;50.672;4.206;2024-03-02T04:12:06;0.28;;;0.20;;
33170;SDS011;19535;50.672;4.206;2024-03-02T04:14:33;0.60;;;0.50;;
33170;SDS011;19535;50.672;4.206;2024-03-02T04:17:00;0.15;;;0.10;;
33170;SDS011;19535;50.672;4.206;2024-03-02T04:19:27;0.38;;;0.20;;
33170;SDS011;19535;50.672;4.206;2024-03-02T04:21:54;0.68;;;0.32;;
33170;SDS011;19535;50.672;4.206;2024-03-02T04:24:21;0.20;;;0.20;;
33170;SDS011;19535;50.672;4.206;2024-03-02T04:26:48;0.45;;;0.30;;
33170;SDS011;19535;50.672;4.206;2024-03-02T04:29:15;0.30;;;0.20;;
33170;SDS011;19535;50.672;4.206;2024-03-02T04:31:42;0.28;;;0.28;;
33170;SDS011;19535;50.672;4.206;2024-03-02T04:34:09;0.60;;;0.40;;
33170;SDS011;19535;50.672;4.206;2024-03-02T04:36:37;0.45;;;0.30;;
33170;SDS011;19535;50.672;4.206;2024-03-02T04:39:04;0.65;;;0.20;;
33170;SDS011;19535;50.672;4.206;2024-03-02T04:41:31;0.88;;;0.30;;
33170;SDS011;19535;50.672;4.206;2024-03-02T04:43:57;0.43;;;0.30;;
33170;SDS011;19535;50.672;4.206;2024-03-02T04:46:24;0.55;;;0.30;;
33170;SDS011;19535;50.672;4.206;2024-03-02T04:48:51;0.65;;;0.35;;
33170;SDS011;19535;50.672;4.206;2024-03-02T04:51:22;0.70;;;0.30;;
33170;SDS011;19535;50.672;4.206;2024-03-02T04:53:49;0.90;;;0.30;;
33170;SDS011;19535;50.672;4.206;2024-03-02T04:56:16;0.30;;;0.30;;
33170;SDS011;19535;50.672;4.206;2024-03-02T04:59:06;0.40;;;0.30;;
33170;SDS011;19535;50.672;4.206;2024-03-02T05:01:33;0.50;;;0.30;;
33170;SDS011;19535;50.672;4.206;2024-03-02T05:04:00;0.43;;;0.30;;
33170;SDS011;19535;50.672;4.206;2024-03-02T05:06:27;0.47;;;0.20;;
33170;SDS011;19535;50.672;4.206;2024-03-02T05:08:54;1.42;;;0.30;;
33170;SDS011;19535;50.672;4.206;2024-03-02T05:11:21;0.50;;;0.30;;
33170;SDS011;19535;50.672;4.206;2024-03-02T05:14:03;1.25;;;0.40;;
33170;SDS011;19535;50.672;4.206;2024-03-02T05:16:34;0.77;;;0.25;;
33170;SDS011;19535;50.672;4.206;2024-03-02T05:19:01;0.60;;;0.28;;
33170;SDS011;19535;50.672;4.206;2024-03-02T05:21:28;0.30;;;0.28;;
33170;SDS011;19535;50.672;4.206;2024-03-02T05:23:55;0.20;;;0.20;;
33170;SDS011;19535;50.672;4.206;2024-03-02T05:26:22;1.10;;;0.22;;
33170;SDS011;19535;50.672;4.206;2024-03-02T05:28:49;0.30;;;0.28;;
33170;SDS011;19535;50.672;4.206;2024-03-02T05:31:16;1.13;;;0.30;;
33170;SDS011;19535;50.672;4.206;2024-03-02T05:33:43;3.65;;;0.60;;
33170;SDS011;19535;50.672;4.206;2024-03-02T05:36:11;0.65;;;0.25;;
33170;SDS011;19535;50.672;4.206;2024-03-02T05:38:38;0.60;;;0.40;;
33170;SDS011;19535;50.672;4.206;2024-03-02T05:41:05;0.50;;;0.20;;
33170;SDS011;19535;50.672;4.206;2024-03-02T05:43:32;0.40;;;0.30;;
33170;SDS011;19535;50.672;4.206;2024-03-02T05:45:58;0.85;;;0.57;;
33170;SDS011;19535;50.672;4.206;2024-03-02T05:48:26;0.30;;;0.30;;
33170;SDS011;19535;50.672;4.206;2024-03-02T05:50:53;0.35;;;0.28;;
33170;SDS011;19535;50.672;4.206;2024-03-02T05:53:20;0.63;;;0.30;;
33170;SDS011;19535;50.672;4.206;2024-03-02T05:55:47;0.45;;;0.20;;
33170;SDS011;19535;50.672;4.206;2024-03-02T05:58:19;0.63;;;0.30;;
33170;SDS011;19535;50.672;4.206;2024-03-02T06:01:12;0.40;;;0.30;;
33170;SDS011;19535;50.672;4.206;2024-03-02T06:03:39;0.90;;;0.30;;
33170;SDS011;19535;50.672;4.206;2024-03-02T06:06:06;0.30;;;0.20;;
33170;SDS011;19535;50.672;4.206;2024-03-02T06:08:33;0.75;;;0.30;;
33170;SDS011;19535;50.672;4.206;2024-03-02T06:11:01;0.68;;;0.47;;
33170;SDS011;19535;50.672;4.206;2024-03-02T06:13:28;0.77;;;0.40;;
33170;SDS011;19535;50.672;4.206;2024-03-02T06:15:55;0.30;;;0.20;;
33170;SDS011;19535;50.672;4.206;2024-03-02T06:18:22;0.40;;;0.30;;
33170;SDS011;19535;50.672;4.206;2024-03-02T06:20:49;0.22;;;0.15;;
33170;SDS011;19535;50.672;4.206;2024-03-02T06:23:16;0.25;;;0.20;;
33170;SDS011;19535;50.672;4.206;2024-03-02T06:25:43;0.40;;;0.30;;
33170;SDS011;19535;50.672;4.206;2024-03-02T06:28:10;0.57;;;0.40;;
33170;SDS011;19535;50.672;4.206;2024-03-02T06:30:37;0.45;;;0.28;;
33170;SDS011;19535;50.672;4.206;2024-03-02T06:33:04;0.22;;;0.20;;
33170;SDS011;19535;50.672;4.206;2024-03-02T06:35:32;0.73;;;0.52;;
33170;SDS011;19535;50.672;4.206;2024-03-02T06:37:59;0.63;;;0.30;;
33170;SDS011;19535;50.672;4.206;2024-03-02T06:40:26;0.47;;;0.40;;
33170;SDS011;19535;50.672;4.206;2024-03-02T06:42:53;0.43;;;0.30;;
33170;SDS011;19535;50.672;4.206;2024-03-02T06:45:20;0.90;;;0.30;;
33170;SDS011;19535;50.672;4.206;2024-03-02T06:47:47;0.38;;;0.30;;
33170;SDS011;19535;50.672;4.206;2024-03-02T06:50:15;1.63;;;0.60;;
33170;SDS011;19535;50.672;4.206;2024-03-02T06:52:42;0.80;;;0.60;;
33170;SDS011;19535;50.672;4.206;2024-03-02T06:55:09;0.35;;;0.20;;
33170;SDS011;19535;50.672;4.206;2024-03-02T06:57:37;0.20;;;0.20;;
33170;SDS011;19535;50.672;4.206;2024-03-02T07:00:04;0.28;;;0.28;;
33170;SDS011;19535;50.672;4.206;2024-03-02T07:02:32;0.88;;;0.30;;
33170;SDS011;19535;50.672;4.206;2024-03-02T07:04:59;0.68;;;0.40;;
33170;SDS011;19535;50.672;4.206;2024-03-02T07:07:26;0.17;;;0.17;;
33170;SDS011;19535;50.672;4.206;2024-03-02T07:09:53;1.65;;;0.45;;
33170;SDS011;19535;50.672;4.206;2024-03-02T07:12:20;0.85;;;0.40;;
33170;SDS011;19535;50.672;4.206;2024-03-02T07:14:47;0.82;;;0.55;;
33170;SDS011;19535;50.672;4.206;2024-03-02T07:17:33;0.70;;;0.30;;
33170;SDS011;19535;50.672;4.206;2024-03-02T07:20:00;0.82;;;0.40;;
33170;SDS011;19535;50.672;4.206;2024-03-02T07:22:27;0.20;;;0.20;;
33170;SDS011;19535;50.672;4.206;2024-03-02T07:24:54;0.52;;;0.32;;
33170;SDS011;19535;50.672;4.206;2024-03-02T07:27:21;0.20;;;0.20;;
33170;SDS011;19535;50.672;4.206;2024-03-02T07:29:48;0.40;;;0.30;;
33170;SDS011;19535;50.672;4.206;2024-03-02T07:32:15;1.42;;;0.40;;
33170;SDS011;19535;50.672;4.206;2024-03-02T07:34:42;0.55;;;0.40;;
33170;SDS011;19535;50.672;4.206;2024-03-02T07:37:09;0.40;;;0.40;;
33170;SDS011;19535;50.672;4.206;2024-03-02T07:39:36;0.63;;;0.30;;
33170;SDS011;19535;50.672;4.206;2024-03-02T07:42:03;2.05;;;0.38;;
33170;SDS011;19535;50.672;4.206;2024-03-02T07:44:31;0.95;;;0.47;;
33170;SDS011;19535;50.672;4.206;2024-03-02T07:46:58;0.57;;;0.40;;
33170;SDS011;19535;50.672;4.206;2024-03-02T07:49:25;0.77;;;0.38;;
33170;SDS011;19535;50.672;4.206;2024-03-02T07:51:52;0.55;;;0.40;;
33170;SDS011;19535;50.672;4.206;2024-03-02T07:54:19;1.75;;;0.57;;
33170;SDS011;19535;50.672;4.206;2024-03-02T07:56:46;0.55;;;0.38;;
33170;SDS011;19535;50.672;4.206;2024-03-02T07:59:14;0.70;;;0.50;;
33170;SDS011;19535;50.672;4.206;2024-03-02T08:01:41;0.73;;;0.52;;
33170;SDS011;19535;50.672;4.206;2024-03-02T08:04:08;1.25;;;0.60;;
33170;SDS011;19535;50.672;4.206;2024-03-02T08:06:35;1.10;;;0.40;;
33170;SDS011;19535;50.672;4.206;2024-03-02T08:09:02;1.10;;;0.40;;
33170;SDS011;19535;50.672;4.206;2024-03-02T08:11:35;1.00;;;0.57;;
33170;SDS011;19535;50.672;4.206;2024-03-02T08:14:03;0.90;;;0.40;;
33170;SDS011;19535;50.672;4.206;2024-03-02T08:16:30;0.85;;;0.50;;
33170;SDS011;19535;50.672;4.206;2024-03-02T08:18:57;0.98;;;0.50;;
33170;SDS011;19535;50.672;4.206;2024-03-02T08:21:25;0.70;;;0.40;;
33170;SDS011;19535;50.672;4.206;2024-03-02T08:23:52;1.45;;;0.30;;
33170;SDS011;19535;50.672;4.206;2024-03-02T08:26:19;0.73;;;0.50;;
33170;SDS011;19535;50.672;4.206;2024-03-02T08:28:46;0.88;;;0.30;;
33170;SDS011;19535;50.672;4.206;2024-03-02T08:31:13;0.32;;;0.32;;
33170;SDS011;19535;50.672;4.206;2024-03-02T08:33:40;0.63;;;0.40;;
33170;SDS011;19535;50.672;4.206;2024-03-02T08:36:07;0.70;;;0.40;;
33170;SDS011;19535;50.672;4.206;2024-03-02T08:38:36;0.60;;;0.30;;
33170;SDS011;19535;50.672;4.206;2024-03-02T08:41:03;1.33;;;0.65;;
33170;SDS011;19535;50.672;4.206;2024-03-02T08:43:30;1.90;;;0.50;;
33170;SDS011;19535;50.672;4.206;2024-03-02T08:45:57;1.00;;;0.52;;
33170;SDS011;19535;50.672;4.206;2024-03-02T08:48:24;0.77;;;0.40;;
33170;SDS011;19535;50.672;4.206;2024-03-02T08:50:51;0.85;;;0.40;;
33170;SDS011;19535;50.672;4.206;2024-03-02T08:53:18;0.57;;;0.57;;
33170;SDS011;19535;50.672;4.206;2024-03-02T08:55:46;0.45;;;0.40;;
33170;SDS011;19535;50.672;4.206;2024-03-02T08:58:13;0.90;;;0.50;;
33170;SDS011;19535;50.672;4.206;2024-03-02T09:00:40;1.17;;;0.47;;
33170;SDS011;19535;50.672;4.206;2024-03-02T09:03:07;0.85;;;0.40;;
33170;SDS011;19535;50.672;4.206;2024-03-02T09:05:34;0.60;;;0.45;;
33170;SDS011;19535;50.672;4.206;2024-03-02T09:08:01;1.55;;;0.50;;
33170;SDS011;19535;50.672;4.206;2024-03-02T09:10:30;1.13;;;0.40;;
33170;SDS011;19535;50.672;4.206;2024-03-02T09:12:57;0.60;;;0.40;;
33170;SDS011;19535;50.672;4.206;2024-03-02T09:15:25;0.73;;;0.50;;
33170;SDS011;19535;50.672;4.206;2024-03-02T09:17:52;0.90;;;0.38;;
33170;SDS011;19535;50.672;4.206;2024-03-02T09:20:19;1.02;;;0.50;;
33170;SDS011;19535;50.672;4.206;2024-03-02T09:22:46;1.63;;;0.60;;
33170;SDS011;19535;50.672;4.206;2024-03-02T09:25:15;1.65;;;0.60;;
33170;SDS011;19535;50.672;4.206;2024-03-02T09:27:42;0.50;;;0.40;;
33170;SDS011;19535;50.672;4.206;2024-03-02T09:30:09;1.02;;;0.60;;
33170;SDS011;19535;50.672;4.206;2024-03-02T09:32:37;0.50;;;0.40;;
33170;SDS011;19535;50.672;4.206;2024-03-02T09:35:04;0.80;;;0.50;;
33170;SDS011;19535;50.672;4.206;2024-03-02T09:37:31;1.75;;;0.77;;
33170;SDS011;19535;50.672;4.206;2024-03-02T09:39:58;1.52;;;0.60;;
33170;SDS011;19535;50.672;4.206;2024-03-02T09:42:26;0.60;;;0.38;;
33170;SDS011;19535;50.672;4.206;2024-03-02T09:44:53;0.63;;;0.50;;
33170;SDS011;19535;50.672;4.206;2024-03-02T09:47:20;0.45;;;0.25;;
33170;SDS011;19535;50.672;4.206;2024-03-02T09:49:47;1.20;;;0.50;;
33170;SDS011;19535;50.672;4.206;2024-03-02T09:52:15;0.65;;;0.30;;
33170;SDS011;19535;50.672;4.206;2024-03-02T09:54:42;0.60;;;0.30;;
33170;SDS011;19535;50.672;4.206;2024-03-02T09:57:10;0.95;;;0.45;;
33170;SDS011;19535;50.672;4.206;2024-03-02T09:59:37;1.13;;;0.50;;
33170;SDS011;19535;50.672;4.206;2024-03-02T10:02:04;1.20;;;0.60;;
33170;SDS011;19535;50.672;4.206;2024-03-02T10:12:14;1.15;;;0.47;;
33170;SDS011;19535;50.672;4.206;2024-03-02T10:14:42;1.40;;;0.52;;
33170;SDS011;19535;50.672;4.206;2024-03-02T10:17:10;1.20;;;0.55;;
33170;SDS011;19535;50.672;4.206;2024-03-02T10:19:38;1.35;;;0.68;;
33170;SDS011;19535;50.672;4.206;2024-03-02T10:22:07;1.00;;;0.60;;
33170;SDS011;19535;50.672;4.206;2024-03-02T10:27:16;1.58;;;0.63;;
33170;SDS011;19535;50.672;4.206;2024-03-02T10:29:47;1.35;;;0.68;;
33170;SDS011;19535;50.672;4.206;2024-03-02T10:32:15;1.60;;;0.60;;
33170;SDS011;19535;50.672;4.206;2024-03-02T10:34:43;1.20;;;0.60;;
33170;SDS011;19535;50.672;4.206;2024-03-02T10:37:12;1.33;;;0.60;;
33170;SDS011;19535;50.672;4.206;2024-03-02T10:39:39;1.70;;;0.60;;
33170;SDS011;19535;50.672;4.206;2024-03-02T10:42:07;2.63;;;0.80;;
33170;SDS011;19535;50.672;4.206;2024-03-02T10:44:34;1.40;;;0.60;;
33170;SDS011;19535;50.672;4.206;2024-03-02T10:47:02;1.63;;;0.68;;
33170;SDS011;19535;50.672;4.206;2024-03-02T10:49:31;1.75;;;0.70;;
33170;SDS011;19535;50.672;4.206;2024-03-02T10:51:59;0.90;;;0.30;;
33170;SDS011;19535;50.672;4.206;2024-03-02T10:54:27;3.20;;;0.70;;
33170;SDS011;19535;50.672;4.206;2024-03-02T10:57:03;1.83;;;0.60;;
33170;SDS011;19535;50.672;4.206;2024-03-02T10:59:32;1.75;;;0.80;;
33170;SDS011;19535;50.672;4.206;2024-03-02T11:02:01;2.63;;;1.00;;
33170;SDS011;19535;50.672;4.206;2024-03-02T11:04:31;1.35;;;0.70;;
33170;SDS011;19535;50.672;4.206;2024-03-02T11:07:09;1.23;;;0.70;;
33170;SDS011;19535;50.672;4.206;2024-03-02T11:09:38;4.70;;;0.80;;
33170;SDS011;19535;50.672;4.206;2024-03-02T11:12:23;3.20;;;0.70;;
33170;SDS011;19535;50.672;4.206;2024-03-02T11:14:55;1.67;;;0.70;;
33170;SDS011;19535;50.672;4.206;2024-03-02T11:17:22;3.28;;;0.82;;
33170;SDS011;19535;50.672;4.206;2024-03-02T11:19:50;2.30;;;1.05;;
33170;SDS011;19535;50.672;4.206;2024-03-02T11:22:17;2.58;;;0.60;;
33170;SDS011;19535;50.672;4.206;2024-03-02T11:24:50;1.30;;;0.57;;
33170;SDS011;19535;50.672;4.206;2024-03-02T11:33:02;1.27;;;0.63;;
33170;SDS011;19535;50.672;4.206;2024-03-02T11:35:37;1.10;;;0.68;;
33170;SDS011;19535;50.672;4.206;2024-03-02T11:38:15;1.23;;;0.60;;
33170;SDS011;19535;50.672;4.206;2024-03-02T11:40:42;1.80;;;0.80;;
33170;SDS011;19535;50.672;4.206;2024-03-02T11:43:09;1.88;;;0.75;;
33170;SDS011;19535;50.672;4.206;2024-03-02T11:45:37;1.50;;;0.70;;
33170;SDS011;19535;50.672;4.206;2024-03-02T11:48:13;1.63;;;0.60;;
33170;SDS011;19535;50.672;4.206;2024-03-02T11:50:42;1.48;;;0.80;;
33170;SDS011;19535;50.672;4.206;2024-03-02T11:53:13;2.83;;;0.70;;
33170;SDS011;19535;50.672;4.206;2024-03-02T11:55:41;2.38;;;0.70;;
33170;SDS011;19535;50.672;4.206;2024-03-02T11:58:13;3.53;;;0.80;;
33170;SDS011;19535;50.672;4.206;2024-03-02T12:00:41;2.22;;;0.90;;
33170;SDS011;19535;50.672;4.206;2024-03-02T12:03:09;6.57;;;0.80;;
33170;SDS011;19535;50.672;4.206;2024-03-02T12:05:36;2.97;;;0.73;;
33170;SDS011;19535;50.672;4.206;2024-03-02T12:08:04;3.38;;;0.70;;
33170;SDS011;19535;50.672;4.206;2024-03-02T12:10:35;1.60;;;0.80;;
33170;SDS011;19535;50.672;4.206;2024-03-02T12:13:03;2.17;;;0.70;;
33170;SDS011;19535;50.672;4.206;2024-03-02T12:15:34;1.77;;;0.70;;
33170;SDS011;19535;50.672;4.206;2024-03-02T12:18:03;2.08;;;0.80;;
33170;SDS011;19535;50.672;4.206;2024-03-02T12:20:32;1.92;;;0.80;;
33170;SDS011;19535;50.672;4.206;2024-03-02T12:23:04;2.83;;;0.98;;
33170;SDS011;19535;50.672;4.206;2024-03-02T12:25:34;3.05;;;0.80;;
33170;SDS011;19535;50.672;4.206;2024-03-02T12:28:01;2.47;;;0.90;;
33170;SDS011;19535;50.672;4.206;2024-03-02T12:30:29;3.83;;;0.80;;
33170;SDS011;19535;50.672;4.206;2024-03-02T12:32:57;3.13;;;1.00;;
33170;SDS011;19535;50.672;4.206;2024-03-02T12:35:24;1.95;;;0.80;;
33170;SDS011;19535;50.672;4.206;2024-03-02T12:37:53;3.38;;;1.02;;
33170;SDS011;19535;50.672;4.206;2024-03-02T12:40:21;5.93;;;0.95;;
33170;SDS011;19535;50.672;4.206;2024-03-02T12:42:49;4.75;;;0.80;;
33170;SDS011;19535;50.672;4.206;2024-03-02T12:45:17;2.58;;;0.95;;
33170;SDS011;19535;50.672;4.206;2024-03-02T12:47:51;2.00;;;0.70;;
33170;SDS011;19535;50.672;4.206;2024-03-02T12:50:19;2.95;;;0.90;;
33170;SDS011;19535;50.672;4.206;2024-03-02T12:52:53;4.32;;;0.90;;
33170;SDS011;19535;50.672;4.206;2024-03-02T12:55:21;3.15;;;0.95;;
33170;SDS011;19535;50.672;4.206;2024-03-02T12:57:49;1.25;;;0.82;;
33170;SDS011;19535;50.672;4.206;2024-03-02T13:00:18;3.38;;;1.02;;
33170;SDS011;19535;50.672;4.206;2024-03-02T13:02:46;1.52;;;0.70;;
33170;SDS011;19535;50.672;4.206;2024-03-02T13:05:15;2.67;;;0.77;;
33170;SDS011;19535;50.672;4.206;2024-03-02T13:07:42;1.33;;;0.68;;
33170;SDS011;19535;50.672;4.206;2024-03-02T13:10:12;1.90;;;0.70;;
33170;SDS011;19535;50.672;4.206;2024-03-02T13:12:39;1.42;;;0.70;;
33170;SDS011;19535;50.672;4.206;2024-03-02T13:15:06;1.85;;;0.70;;
33170;SDS011;19535;50.672;4.206;2024-03-02T13:17:35;2.05;;;0.60;;
33170;SDS011;19535;50.672;4.206;2024-03-02T13:20:04;1.35;;;0.52;;
33170;SDS011;19535;50.672;4.206;2024-03-02T13:22:37;1.63;;;0.50;;
33170;SDS011;19535;50.672;4.206;2024-03-02T13:25:04;1.02;;;0.65;;
33170;SDS011;19535;50.672;4.206;2024-03-02T13:27:32;0.98;;;0.60;;
33170;SDS011;19535;50.672;4.206;2024-03-02T13:29:59;2.33;;;0.70;;
33170;SDS011;19535;50.672;4.206;2024-03-02T13:32:27;1.10;;;0.50;;
33170;SDS011;19535;50.672;4.206;2024-03-02T13:34:54;1.35;;;0.70;;
33170;SDS011;19535;50.672;4.206;2024-03-02T13:37:21;1.23;;;0.52;;
33170;SDS011;19535;50.672;4.206;2024-03-02T13:39:48;1.15;;;0.63;;
33170;SDS011;19535;50.672;4.206;2024-03-02T13:42:16;0.65;;;0.32;;
33170;SDS011;19535;50.672;4.206;2024-03-02T13:44:43;0.85;;;0.55;;
33170;SDS011;19535;50.672;4.206;2024-03-02T13:47:16;2.67;;;0.70;;
33170;SDS011;19535;50.672;4.206;2024-03-02T13:49:43;1.25;;;0.55;;
33170;SDS011;19535;50.672;4.206;2024-03-02T13:52:12;0.63;;;0.45;;
33170;SDS011;19535;50.672;4.206;2024-03-02T13:54:40;1.35;;;0.60;;
33170;SDS011;19535;50.672;4.206;2024-03-02T13:57:08;0.73;;;0.50;;
33170;SDS011;19535;50.672;4.206;2024-03-02T13:59:36;0.98;;;0.60;;
33170;SDS011;19535;50.672;4.206;2024-03-02T14:02:06;0.95;;;0.47;;
33170;SDS011;19535;50.672;4.206;2024-03-02T14:04:34;0.85;;;0.50;;
33170;SDS011;19535;50.672;4.206;2024-03-02T14:07:01;1.25;;;0.52;;
33170;SDS011;19535;50.672;4.206;2024-03-02T14:09:29;0.85;;;0.45;;
33170;SDS011;19535;50.672;4.206;2024-03-02T14:11:56;0.98;;;0.52;;
33170;SDS011;19535;50.672;4.206;2024-03-02T14:14:23;0.95;;;0.50;;
33170;SDS011;19535;50.672;4.206;2024-03-02T14:16:51;1.27;;;0.57;;
33170;SDS011;19535;50.672;4.206;2024-03-02T14:19:18;0.90;;;0.60;;
33170;SDS011;19535;50.672;4.206;2024-03-02T14:21:46;2.10;;;0.73;;
33170;SDS011;19535;50.672;4.206;2024-03-02T14:24:14;1.27;;;0.73;;
33170;SDS011;19535;50.672;4.206;2024-03-02T14:26:41;1.35;;;0.63;;
33170;SDS011;19535;50.672;4.206;2024-03-02T14:29:08;1.50;;;0.77;;
33170;SDS011;19535;50.672;4.206;2024-03-02T14:31:35;1.02;;;0.43;;
33170;SDS011;19535;50.672;4.206;2024-03-02T14:34:02;0.57;;;0.40;;
33170;SDS011;19535;50.672;4.206;2024-03-02T14:36:29;1.10;;;0.60;;
33170;SDS011;19535;50.672;4.206;2024-03-02T14:38:56;1.05;;;0.40;;
33170;SDS011;19535;50.672;4.206;2024-03-02T14:41:24;0.82;;;0.47;;
33170;SDS011;19535;50.672;4.206;2024-03-02T14:43:51;1.00;;;0.45;;
33170;SDS011;19535;50.672;4.206;2024-03-02T14:46:19;0.52;;;0.50;;
33170;SDS011;19535;50.672;4.206;2024-03-02T14:48:46;0.50;;;0.38;;
33170;SDS011;19535;50.672;4.206;2024-03-02T14:51:13;0.73;;;0.40;;
33170;SDS011;19535;50.672;4.206;2024-03-02T14:53:41;0.70;;;0.50;;
33170;SDS011;19535;50.672;4.206;2024-03-02T14:56:08;0.55;;;0.40;;
33170;SDS011;19535;50.672;4.206;2024-03-02T14:58:36;1.90;;;0.50;;
33170;SDS011;19535;50.672;4.206;2024-03-02T15:01:03;0.75;;;0.50;;
33170;SDS011;19535;50.672;4.206;2024-03-02T15:03:32;1.38;;;0.50;;
33170;SDS011;19535;50.672;4.206;2024-03-02T15:06:00;0.93;;;0.40;;
33170;SDS011;19535;50.672;4.206;2024-03-02T15:08:27;0.73;;;0.43;;
33170;SDS011;19535;50.672;4.206;2024-03-02T15:10:54;0.82;;;0.50;;